createdAt,value
2022-10-17T00:00:42.424Z,10.03
2022-10-17T00:03:09.477Z,10.01
2022-10-17T00:05:41.177Z,10.05
2022-10-17T00:08:08.118Z,10.01
2022-10-17T00:10:35.350Z,10.03
2022-10-17T00:13:02.121Z,9.97
2022-10-17T00:15:29.234Z,10.03
2022-10-17T00:17:56.310Z,9.95
2022-10-17T00:20:23.103Z,10.00
2022-10-17T00:22:49.835Z,9.89
2022-10-17T00:25:16.789Z,9.84
2022-10-17T00:27:44.039Z,9.78
2022-10-17T00:30:13.279Z,9.81
2022-10-17T00:32:40.343Z,9.81
2022-10-17T00:35:08.556Z,9.81
2022-10-17T00:37:35.333Z,9.92
2022-10-17T00:40:01.982Z,9.92
2022-10-17T00:42:29.163Z,9.93
2022-10-17T00:45:08.484Z,10.03
2022-10-17T00:47:36.819Z,10.00
2022-10-17T00:50:05.377Z,10.09
2022-10-17T00:52:32.717Z,10.15
2022-10-17T00:55:11.942Z,10.16
2022-10-17T00:57:39.660Z,10.18
2022-10-17T01:00:10.148Z,10.18
2022-10-17T01:02:37.359Z,10.24
2022-10-17T01:05:06.926Z,10.28
2022-10-17T01:07:37.123Z,10.28
2022-10-17T01:10:05.771Z,10.34
2022-10-17T01:12:54.093Z,10.31
2022-10-17T01:15:33.172Z,10.20
2022-10-17T01:18:27.373Z,10.18
2022-10-17T01:21:05.145Z,10.28
2022-10-17T01:24:05.784Z,10.45
2022-10-17T01:26:59.219Z,10.51
2022-10-17T01:29:32.042Z,10.54
2022-10-17T01:32:03.792Z,10.60
2022-10-17T01:35:02.486Z,10.64
2022-10-17T01:37:48.288Z,10.63
2022-10-17T01:40:24.409Z,10.59
2022-10-17T01:43:14.827Z,10.66
2022-10-17T01:45:49.861Z,10.69
2022-10-17T01:48:21.675Z,10.81
2022-10-17T01:51:06.001Z,10.75
2022-10-17T01:53:36.338Z,10.81
2022-10-17T01:56:07.645Z,10.81
2022-10-17T01:58:44.168Z,10.84
2022-10-17T02:01:12.808Z,10.92
2022-10-17T02:03:42.193Z,10.95
2022-10-17T02:06:08.845Z,10.95
2022-10-17T02:08:47.553Z,10.98
2022-10-17T02:11:26.133Z,10.95
2022-10-17T02:14:08.079Z,10.94
2022-10-17T02:17:05.653Z,10.96
2022-10-17T02:19:50.015Z,11.02
2022-10-17T02:22:43.021Z,11.07
2022-10-17T02:25:15.515Z,11.15
2022-10-17T02:27:50.880Z,11.05
2022-10-17T02:30:29.664Z,11.05
2022-10-17T02:33:02.015Z,11.07
2022-10-17T02:35:34.702Z,11.11
2022-10-17T02:38:03.548Z,11.18
2022-10-17T02:40:31.754Z,11.20
2022-10-17T02:43:01.008Z,11.20
2022-10-17T02:45:29.880Z,11.13
2022-10-17T02:48:03.316Z,11.11
2022-10-17T02:51:01.680Z,11.19
2022-10-17T02:53:44.175Z,11.26
2022-10-17T02:56:17.268Z,11.20
2022-10-17T02:58:53.735Z,11.15
2022-10-17T03:01:21.029Z,11.22
2022-10-17T03:03:48.001Z,11.27
2022-10-17T03:06:14.814Z,11.27
2022-10-17T03:08:41.542Z,11.37
2022-10-17T03:11:08.654Z,11.37
2022-10-17T03:13:38.949Z,11.42
2022-10-17T03:16:06.742Z,11.31
2022-10-17T03:18:33.393Z,11.37
2022-10-17T03:21:00.177Z,11.45
2022-10-17T03:23:26.803Z,11.48
2022-10-17T03:25:53.494Z,11.46
2022-10-17T03:28:20.150Z,11.46
2022-10-17T03:30:46.929Z,11.49
2022-10-17T03:33:13.545Z,11.54
2022-10-17T03:35:40.706Z,11.53
2022-10-17T03:38:07.630Z,11.58
2022-10-17T03:40:34.347Z,11.60
2022-10-17T03:43:01.031Z,11.68
2022-10-17T03:45:27.983Z,11.69
2022-10-17T03:47:54.665Z,11.58
2022-10-17T03:50:21.408Z,11.66
2022-10-17T03:52:49.215Z,11.59
2022-10-17T03:55:17.198Z,11.54
2022-10-17T03:57:45.554Z,11.64
2022-10-17T04:00:13.186Z,11.66
2022-10-17T04:02:39.830Z,11.73
2022-10-17T04:05:07.203Z,11.82
2022-10-17T04:07:33.925Z,11.87
2022-10-17T04:10:00.541Z,11.92
2022-10-17T04:12:27.484Z,11.94
2022-10-17T04:14:54.650Z,11.94
2022-10-17T04:17:21.605Z,11.96
2022-10-17T04:19:49.927Z,11.90
2022-10-17T04:22:16.981Z,11.88
2022-10-17T04:24:44.720Z,11.87
2022-10-17T04:27:11.411Z,11.86
2022-10-17T04:29:38.076Z,11.91
2022-10-17T04:32:04.965Z,11.90
2022-10-17T04:34:31.559Z,11.94
2022-10-17T04:36:58.196Z,12.01
2022-10-17T04:39:24.895Z,12.05
2022-10-17T04:41:51.514Z,12.03
2022-10-17T04:44:18.413Z,12.06
2022-10-17T04:46:45.435Z,12.06
2022-10-17T04:49:12.830Z,12.06
2022-10-17T04:51:39.710Z,12.11
2022-10-17T04:54:06.607Z,12.12
2022-10-17T04:56:33.439Z,12.19
2022-10-17T04:59:00.626Z,12.17
2022-10-17T05:01:27.784Z,12.21
2022-10-17T05:03:54.506Z,12.19
2022-10-17T05:06:23.959Z,12.20
2022-10-17T05:08:51.312Z,12.17
2022-10-17T05:11:24.307Z,12.22
2022-10-17T05:13:53.026Z,12.08
2022-10-17T05:16:20.147Z,12.17
2022-10-17T05:18:55.775Z,12.12
2022-10-17T05:21:24.784Z,12.16
2022-10-17T05:23:51.819Z,12.22
2022-10-17T05:26:18.878Z,12.22
2022-10-17T05:28:45.781Z,12.23
2022-10-17T05:31:13.244Z,12.21
2022-10-17T05:33:40.604Z,12.28
2022-10-17T05:36:07.746Z,12.27
2022-10-17T05:38:34.865Z,12.25
2022-10-17T05:41:05.049Z,12.22
2022-10-17T05:43:32.206Z,12.27
2022-10-17T05:45:58.831Z,12.28
2022-10-17T05:48:25.487Z,12.31
2022-10-17T05:50:58.858Z,12.37
2022-10-17T05:53:25.590Z,12.33
2022-10-17T05:56:01.489Z,12.40
2022-10-17T06:01:15.631Z,12.47
2022-10-17T06:03:42.404Z,12.52
2022-10-17T06:06:12.294Z,12.64
2022-10-17T06:08:39.625Z,12.69
2022-10-17T06:11:09.254Z,12.76
2022-10-17T06:13:37.777Z,12.78
2022-10-17T06:16:04.730Z,12.78
2022-10-17T06:18:31.680Z,12.78
2022-10-17T06:21:07.009Z,12.82
2022-10-17T06:23:34.330Z,12.79
2022-10-17T06:26:02.775Z,12.80
2022-10-17T06:28:30.095Z,12.79
2022-10-17T06:30:56.790Z,12.78
2022-10-17T06:33:23.699Z,12.81
2022-10-17T06:35:54.984Z,12.86
2022-10-17T06:38:22.685Z,12.89
2022-10-17T06:40:49.401Z,12.90
2022-10-17T06:43:17.007Z,12.93
2022-10-17T06:45:46.189Z,12.97
2022-10-17T06:48:12.973Z,12.97
2022-10-17T06:50:39.673Z,13.32
2022-10-17T06:53:06.574Z,13.55
2022-10-17T06:55:33.184Z,13.34
2022-10-17T06:57:59.795Z,13.43
2022-10-17T07:00:26.900Z,13.35
2022-10-17T07:02:53.519Z,13.39
2022-10-17T07:05:20.227Z,13.43
2022-10-17T07:07:49.664Z,13.50
2022-10-17T07:10:18.568Z,13.54
2022-10-17T07:12:45.858Z,13.62
2022-10-17T07:15:13.139Z,13.77
2022-10-17T07:17:39.966Z,13.91
2022-10-17T07:20:07.337Z,13.96
2022-10-17T07:22:34.121Z,14.14
2022-10-17T07:25:00.780Z,14.12
2022-10-17T07:27:27.886Z,14.24
2022-10-17T07:29:54.994Z,14.33
2022-10-17T07:32:21.674Z,14.42
2022-10-17T07:34:48.316Z,14.57
2022-10-17T07:37:15.113Z,14.56
2022-10-17T07:39:41.892Z,14.64
2022-10-17T07:42:08.636Z,14.67
2022-10-17T07:44:35.766Z,14.75
2022-10-17T07:47:02.504Z,14.83
2022-10-17T07:49:29.401Z,14.91
2022-10-17T07:51:56.565Z,14.97
2022-10-17T07:54:23.373Z,15.15
2022-10-17T07:56:50.658Z,15.39
2022-10-17T07:59:18.502Z,15.55
2022-10-17T08:01:45.283Z,15.75
2022-10-17T08:04:11.922Z,15.77
2022-10-17T08:06:38.736Z,15.77
2022-10-17T08:09:05.674Z,15.95
2022-10-17T08:11:32.372Z,16.07
2022-10-17T08:13:59.018Z,16.19
2022-10-17T08:16:25.739Z,16.26
2022-10-17T08:18:52.378Z,16.39
2022-10-17T08:21:19.218Z,16.54
2022-10-17T08:23:46.015Z,16.70
2022-10-17T08:26:16.665Z,16.88
2022-10-17T08:28:44.371Z,17.04
2022-10-17T08:31:18.151Z,17.31
2022-10-17T08:33:46.141Z,17.59
2022-10-17T08:36:19.292Z,18.06
2022-10-17T08:38:50.329Z,18.21
2022-10-17T08:41:33.462Z,18.39
2022-10-17T08:44:21.966Z,18.77
2022-10-17T08:46:52.333Z,19.27
2022-10-17T08:49:41.120Z,19.43
2022-10-17T08:52:21.953Z,19.86
2022-10-17T08:54:50.763Z,20.48
2022-10-17T08:57:17.976Z,20.18
2022-10-17T08:59:46.797Z,20.31
2022-10-17T09:02:22.728Z,20.32
2022-10-17T09:05:08.149Z,20.81
2022-10-17T09:08:22.451Z,21.69
2022-10-17T09:11:07.158Z,21.66
2022-10-17T09:13:43.014Z,22.14
2022-10-17T09:16:30.863Z,22.19
2022-10-17T09:19:11.701Z,22.29
2022-10-17T09:21:51.077Z,22.11
2022-10-17T09:24:25.751Z,21.65
2022-10-17T09:26:54.292Z,20.80
2022-10-17T09:29:27.716Z,20.63
2022-10-17T09:32:17.666Z,20.00
2022-10-17T09:34:44.445Z,19.83
2022-10-17T09:37:14.479Z,19.61
2022-10-17T09:39:42.708Z,19.60
2022-10-17T09:42:14.629Z,19.51
2022-10-17T09:45:26.767Z,19.45
2022-10-17T09:47:59.499Z,19.43
2022-10-17T09:50:33.180Z,19.40
2022-10-17T09:53:08.554Z,19.87
2022-10-17T09:55:52.190Z,19.65
2022-10-17T09:58:22.175Z,19.60
2022-10-17T10:00:49.322Z,20.01
2022-10-17T10:03:23.193Z,19.58
2022-10-17T10:06:00.648Z,19.63
2022-10-17T10:08:29.123Z,19.84
2022-10-17T10:11:13.463Z,19.97
2022-10-17T10:13:41.129Z,19.87
2022-10-17T10:16:18.895Z,20.16
2022-10-17T10:18:47.527Z,20.37
2022-10-17T10:21:18.326Z,20.53
2022-10-17T10:24:02.687Z,20.76
2022-10-17T10:26:46.827Z,20.79
2022-10-17T10:29:31.275Z,20.90
2022-10-17T10:32:15.995Z,21.04
2022-10-17T10:35:03.774Z,20.93
2022-10-17T10:37:46.365Z,20.91
2022-10-17T10:40:45.567Z,21.07
2022-10-17T10:43:34.448Z,21.16
2022-10-17T10:46:02.982Z,21.06
2022-10-17T10:48:34.844Z,21.13
2022-10-17T10:51:04.328Z,21.63
2022-10-17T10:53:47.795Z,21.54
2022-10-17T10:56:37.036Z,21.84
2022-10-17T10:59:12.683Z,22.04
2022-10-17T11:01:50.006Z,21.75
2022-10-17T11:04:44.698Z,21.91
2022-10-17T11:07:23.302Z,21.93
2022-10-17T11:10:08.505Z,21.89
2022-10-17T11:15:34.884Z,21.45
2022-10-17T11:18:11.240Z,21.65
2022-10-17T11:21:00.154Z,21.87
2022-10-17T11:23:49.216Z,21.83
2022-10-17T11:26:28.288Z,21.83
2022-10-17T11:29:02.321Z,21.91
2022-10-17T11:31:37.352Z,21.81
2022-10-17T11:34:36.336Z,21.95
2022-10-17T11:37:09.644Z,21.73
2022-10-17T11:39:49.320Z,22.22
2022-10-17T11:42:25.730Z,21.92
2022-10-17T11:45:04.918Z,22.13
2022-10-17T11:47:49.537Z,21.85
2022-10-17T11:53:18.627Z,22.43
2022-10-17T11:55:46.719Z,22.19
2022-10-17T11:58:35.865Z,22.63
2022-10-17T12:01:31.459Z,22.69
2022-10-17T12:04:19.653Z,22.69
2022-10-17T12:07:13.495Z,22.35
2022-10-17T12:09:49.833Z,21.75
2022-10-17T12:12:31.373Z,21.91
2022-10-17T12:15:14.299Z,21.81
2022-10-17T12:17:44.401Z,21.74
2022-10-17T12:20:21.170Z,21.61
2022-10-17T12:22:49.640Z,21.51
2022-10-17T12:25:19.800Z,21.66
2022-10-17T12:27:51.099Z,21.39
2022-10-17T12:30:19.766Z,21.53
2022-10-17T12:33:08.254Z,21.53
2022-10-17T12:35:37.899Z,21.34
2022-10-17T12:38:16.725Z,21.27
2022-10-17T12:40:48.483Z,21.50
2022-10-17T12:43:15.620Z,21.60
2022-10-17T12:45:55.434Z,21.72
2022-10-17T12:48:34.500Z,21.84
2022-10-17T12:51:34.846Z,21.90
2022-10-17T12:54:07.005Z,22.01
2022-10-17T12:56:45.806Z,22.08
2022-10-17T12:59:20.790Z,22.02
2022-10-17T13:01:51.146Z,21.91
2022-10-17T13:04:18.878Z,21.79
2022-10-17T13:06:48.440Z,21.68
2022-10-17T13:09:37.675Z,21.62
2022-10-17T13:12:11.036Z,21.57
2022-10-17T13:14:43.576Z,21.55
2022-10-17T13:17:23.069Z,21.50
2022-10-17T13:19:49.983Z,21.38
2022-10-17T13:22:22.578Z,21.40
2022-10-17T13:24:51.249Z,21.42
2022-10-17T13:27:35.212Z,21.38
2022-10-17T13:30:23.417Z,21.31
2022-10-17T13:32:51.990Z,21.16
2022-10-17T13:38:28.652Z,20.99
2022-10-17T13:41:05.786Z,20.88
2022-10-17T13:43:38.971Z,20.95
2022-10-17T13:46:32.595Z,20.89
2022-10-17T13:48:54.006Z,20.90
2022-10-17T13:51:20.680Z,20.85
2022-10-17T13:53:47.557Z,20.63
2022-10-17T13:56:29.506Z,20.65
2022-10-17T13:59:01.508Z,20.57
2022-10-17T14:01:29.555Z,20.57
2022-10-17T14:04:08.456Z,20.51
2022-10-17T14:06:47.987Z,20.44
2022-10-17T14:09:25.366Z,20.47
2022-10-17T14:12:02.691Z,20.37
2022-10-17T14:14:32.134Z,20.40
2022-10-17T14:17:13.986Z,20.30
2022-10-17T14:19:40.917Z,20.41
2022-10-17T14:22:18.158Z,20.31
2022-10-17T14:24:45.407Z,20.19
2022-10-17T14:28:03.322Z,20.18
2022-10-17T14:30:55.837Z,20.15
2022-10-17T14:33:26.801Z,20.16
2022-10-17T14:35:56.184Z,20.17
2022-10-17T14:38:23.521Z,20.16
2022-10-17T14:41:00.951Z,20.15
2022-10-17T14:43:36.455Z,20.14
2022-10-17T14:46:03.344Z,20.13
2022-10-17T14:48:33.260Z,20.01
2022-10-17T14:51:12.098Z,20.03
2022-10-17T14:53:39.509Z,20.01
2022-10-17T14:56:23.229Z,20.04
2022-10-17T14:58:50.001Z,19.96
2022-10-17T15:01:16.661Z,19.99
2022-10-17T15:03:44.326Z,20.04
2022-10-17T15:06:27.160Z,20.02
2022-10-17T15:08:54.005Z,19.97
2022-10-17T15:11:20.728Z,19.97
2022-10-17T15:13:47.580Z,20.03
2022-10-17T15:16:21.536Z,20.01
2022-10-17T15:18:49.500Z,19.95
2022-10-17T15:21:26.497Z,19.87
2022-10-17T15:24:06.098Z,19.88
2022-10-17T15:26:34.353Z,19.87
2022-10-17T15:29:01.495Z,19.81
2022-10-17T15:31:31.190Z,19.83
2022-10-17T15:33:58.424Z,19.73
2022-10-17T15:36:30.499Z,19.74
2022-10-17T15:39:02.591Z,19.62
2022-10-17T15:41:32.076Z,19.58
2022-10-17T15:44:00.544Z,19.52
2022-10-17T15:46:30.781Z,19.50
2022-10-17T15:49:03.282Z,19.45
2022-10-17T15:51:30.833Z,19.45
2022-10-17T15:54:01.234Z,19.36
2022-10-17T15:56:29.746Z,19.32
2022-10-17T15:58:57.312Z,19.37
2022-10-17T16:01:27.146Z,19.30
2022-10-17T16:03:54.606Z,19.16
2022-10-17T16:06:22.520Z,19.21
2022-10-17T16:08:49.986Z,19.09
2022-10-17T16:11:25.722Z,19.09
2022-10-17T16:13:54.487Z,18.93
2022-10-17T16:16:22.534Z,18.91
2022-10-17T16:18:49.454Z,18.80
2022-10-17T16:21:17.643Z,18.78
2022-10-17T16:23:44.965Z,18.83
2022-10-17T16:26:15.924Z,18.79
2022-10-17T16:28:46.016Z,18.77
2022-10-17T16:31:25.152Z,18.69
2022-10-17T16:33:53.160Z,18.79
2022-10-17T16:36:20.721Z,18.82
2022-10-17T16:38:48.033Z,18.80
2022-10-17T16:41:21.342Z,18.73
2022-10-17T16:43:49.758Z,18.70
2022-10-17T16:46:17.075Z,18.67
2022-10-17T16:48:45.621Z,18.66
2022-10-17T16:51:18.021Z,18.63
2022-10-17T16:53:45.898Z,18.70
2022-10-17T16:56:16.546Z,18.59
2022-10-17T16:58:43.776Z,18.62
2022-10-17T17:01:13.195Z,18.55
2022-10-17T17:03:42.020Z,18.54
2022-10-17T17:06:12.106Z,18.50
2022-10-17T17:08:39.066Z,18.46
2022-10-17T17:11:11.177Z,18.42
2022-10-17T17:13:38.183Z,18.29
2022-10-17T17:16:34.896Z,18.37
2022-10-17T17:19:07.555Z,18.34
2022-10-17T17:21:35.047Z,18.32
2022-10-17T17:24:03.404Z,18.35
2022-10-17T17:26:32.895Z,18.26
2022-10-17T17:29:00.367Z,18.18
2022-10-17T17:31:29.609Z,18.07
2022-10-17T17:33:57.059Z,18.08
2022-10-17T17:36:27.054Z,18.15
2022-10-17T17:38:55.971Z,18.13
2022-10-17T17:41:23.317Z,18.08
2022-10-17T17:43:50.724Z,18.05
2022-10-17T17:46:19.404Z,18.11
2022-10-17T17:48:47.776Z,17.93
2022-10-17T17:51:18.002Z,17.89
2022-10-17T17:53:44.705Z,17.82
2022-10-17T17:56:15.156Z,17.82
2022-10-17T17:58:45.568Z,17.76
2022-10-17T18:01:22.398Z,17.80
2022-10-17T18:03:52.543Z,17.74
2022-10-17T18:06:20.399Z,17.85
2022-10-17T18:08:52.248Z,17.81
2022-10-17T18:11:21.929Z,17.74
2022-10-17T18:14:02.151Z,17.70
2022-10-17T18:16:30.703Z,17.76
2022-10-17T18:19:01.482Z,17.66
2022-10-17T18:21:31.656Z,17.63
2022-10-17T18:24:01.390Z,17.61
2022-10-17T18:26:28.341Z,17.63
2022-10-17T18:28:55.593Z,17.59
2022-10-17T18:31:28.320Z,17.64
2022-10-17T18:33:57.893Z,17.62
2022-10-17T18:36:26.219Z,17.56
2022-10-17T18:38:54.500Z,17.51
2022-10-17T18:41:24.134Z,17.49
2022-10-17T18:43:54.747Z,17.48
2022-10-17T18:46:24.489Z,17.52
2022-10-17T18:48:51.703Z,17.52
2022-10-17T18:51:21.484Z,17.50
2022-10-17T18:53:51.334Z,17.51
2022-10-17T18:56:18.936Z,17.45
2022-10-17T18:58:46.459Z,17.47
2022-10-17T19:01:19.838Z,17.44
2022-10-17T19:03:48.525Z,17.45
2022-10-17T19:06:19.312Z,17.45
2022-10-17T19:08:46.785Z,17.45
2022-10-17T19:11:22.564Z,17.44
2022-10-17T19:13:50.081Z,17.48
2022-10-17T19:16:23.414Z,17.46
2022-10-17T19:18:52.170Z,17.40
2022-10-17T19:21:21.917Z,17.35
2022-10-17T19:23:58.740Z,17.37
2022-10-17T19:26:27.504Z,17.35
2022-10-17T19:28:54.772Z,17.35
2022-10-17T19:31:26.771Z,17.38
2022-10-17T19:33:55.614Z,17.39
2022-10-17T19:36:27.617Z,17.37
2022-10-17T19:38:58.114Z,17.33
2022-10-17T19:41:26.276Z,17.35
2022-10-17T19:43:52.942Z,17.36
2022-10-17T19:46:22.237Z,17.40
2022-10-17T19:48:50.377Z,17.38
2022-10-17T19:51:19.255Z,17.37
2022-10-17T19:53:47.167Z,17.44
2022-10-17T19:56:14.034Z,17.37
2022-10-17T19:58:46.606Z,17.36
2022-10-17T20:01:34.793Z,17.32
2022-10-17T20:04:01.619Z,17.26
2022-10-17T20:06:28.539Z,17.21
2022-10-17T20:08:55.997Z,17.25
2022-10-17T20:11:26.088Z,17.24
2022-10-17T20:13:54.268Z,17.26
2022-10-17T20:16:24.331Z,17.22
2022-10-17T20:18:53.099Z,17.24
2022-10-17T20:21:27.371Z,17.29
2022-10-17T20:23:54.751Z,17.28
2022-10-17T20:26:33.645Z,17.25
2022-10-17T20:29:08.737Z,17.16
2022-10-17T20:31:35.874Z,17.19
2022-10-17T20:34:03.444Z,17.21
2022-10-17T20:36:30.683Z,17.23
2022-10-17T20:38:59.008Z,17.30
2022-10-17T20:41:26.308Z,17.26
2022-10-17T20:43:54.470Z,17.24
2022-10-17T20:46:35.939Z,17.21
2022-10-17T20:49:04.414Z,17.22
2022-10-17T20:51:35.234Z,17.29
2022-10-17T20:54:02.873Z,17.31
2022-10-17T20:56:31.836Z,17.24
2022-10-17T20:59:07.166Z,17.33
2022-10-17T21:01:35.740Z,17.29
2022-10-17T21:04:26.833Z,17.31
2022-10-17T21:06:51.826Z,17.30
2022-10-17T21:09:19.121Z,17.34
2022-10-17T21:11:46.617Z,17.32
2022-10-17T21:14:16.562Z,17.38
2022-10-17T21:16:43.752Z,17.37
2022-10-17T21:19:12.066Z,17.36
2022-10-17T21:21:42.330Z,17.33
2022-10-17T21:24:18.025Z,17.33
2022-10-17T21:26:46.597Z,17.28
2022-10-17T21:29:14.184Z,17.24
2022-10-17T21:31:43.067Z,17.22
2022-10-17T21:34:15.703Z,17.20
2022-10-17T21:36:42.791Z,17.03
2022-10-17T21:39:11.329Z,17.03
2022-10-17T21:41:38.533Z,17.06
2022-10-17T21:44:08.118Z,17.11
2022-10-17T21:46:34.911Z,17.13
2022-10-17T21:49:01.655Z,17.10
2022-10-17T21:51:28.882Z,16.98
2022-10-17T21:53:57.190Z,16.98
2022-10-17T21:56:28.606Z,16.99
2022-10-17T21:58:55.559Z,17.00
2022-10-17T22:01:25.127Z,16.98
2022-10-17T22:03:55.938Z,16.96
2022-10-17T22:06:39.145Z,16.92
2022-10-17T22:09:15.442Z,17.00
2022-10-17T22:11:46.224Z,16.76
2022-10-17T22:14:16.123Z,16.73
2022-10-17T22:16:44.952Z,16.73
2022-10-17T22:19:13.289Z,16.75
2022-10-17T22:21:40.082Z,16.72
2022-10-17T22:24:10.487Z,16.64
2022-10-17T22:26:38.285Z,16.67
2022-10-17T22:29:07.417Z,16.64
2022-10-17T22:31:34.956Z,16.51
2022-10-17T22:34:02.928Z,16.50
2022-10-17T22:36:31.595Z,16.51
2022-10-17T22:38:58.616Z,16.49
2022-10-17T22:41:25.643Z,16.45
2022-10-17T22:43:52.425Z,16.34
2022-10-17T22:46:19.241Z,16.25
2022-10-17T22:48:46.152Z,16.26
2022-10-17T22:51:13.513Z,16.29
2022-10-17T22:53:40.363Z,16.32
2022-10-17T22:56:17.463Z,16.27
2022-10-17T22:58:44.379Z,16.26
2022-10-17T23:01:17.183Z,16.22
2022-10-17T23:03:44.371Z,16.24
2022-10-17T23:06:11.749Z,16.26
2022-10-17T23:08:39.237Z,16.20
2022-10-17T23:11:06.848Z,16.15
2022-10-17T23:13:33.592Z,16.15
2022-10-17T23:16:00.365Z,16.18
2022-10-17T23:18:27.408Z,16.11
2022-10-17T23:20:54.750Z,16.05
2022-10-17T23:23:21.968Z,16.08
2022-10-17T23:25:49.633Z,16.05
2022-10-17T23:28:17.165Z,16.02
2022-10-17T23:30:44.060Z,16.07
2022-10-17T23:33:12.434Z,16.02
2022-10-17T23:35:39.723Z,16.00
2022-10-17T23:38:06.590Z,15.97
2022-10-17T23:40:34.748Z,15.88
2022-10-17T23:43:02.044Z,15.90
2022-10-17T23:45:31.218Z,15.88
2022-10-17T23:48:00.163Z,15.77
2022-10-17T23:50:26.957Z,15.87
2022-10-17T23:52:53.913Z,15.85
2022-10-17T23:55:20.825Z,15.88
2022-10-17T23:57:47.702Z,15.95
